Weather at Flugplatz Buttwil

Public forecast

Using degrees Celsius for public forecast. Weather courtesy of forecast.io.

Closest aviation weather report (METAR) to Flugplatz Buttwil

Closest report is Emmen Air Base, 10.3 nm (19.2 km) S. Retrieved 2020/10/25 16:20 UTC (3 minutes ago):

LSME 251620Z AUTO 00000KT 9999NDV NCD 13/09 Q1008 RMK

Closest aviation forecast (TAF) to Flugplatz Buttwil

Forecast is more than 6 hours old.

Closest forecast is Emmen Air Base, 10.3 nm (19.2 km) S. Retrieved 2020/10/25 10:00 UTC (6 hours ago):

TAF LSME 250925Z 2510/2616 VRB03KT CAVOK TEMPO 2510/2512 9999 FEW002 BECMG 2520/2523 9999 FEW050 BKN100 TEMPO 2604/2609 RA BKN020 PROB40 TEMPO 2606/2611 27010KT